Time,TemperatureF,DewpointF,PressureIn,WindDirection,WindDirectionDegrees,WindSpeedMPH,WindSpeedGustMPH,Humidity,HourlyPrecipIn,Conditions,Clouds,dailyrainin,SoftwareType,DateUTC
2013-02-21 00:06:00,19.2,15.0,29.74,ESE,110,0.0,-999.0,82,-99.99,,,0.03,weatherlink.com 1.10,2013-02-21 07:06:00,
2013-02-21 00:21:00,19.2,15.0,29.74,ESE,110,0.0,-999.0,82,-99.99,,,0.03,weatherlink.com 1.10,2013-02-21 07:21:00,
2013-02-21 00:36:00,19.1,15.0,29.74,ESE,110,0.0,-999.0,82,-99.99,,,0.03,weatherlink.com 1.10,2013-02-21 07:36:00,
2013-02-21 00:51:00,18.9,14.0,29.74,ESE,110,0.0,-999.0,82,-99.99,,,0.04,weatherlink.com 1.10,2013-02-21 07:51:00,
2013-02-21 01:06:00,18.6,14.0,29.74,ESE,110,0.0,-999.0,82,-99.99,,,0.04,weatherlink.com 1.10,2013-02-21 08:06:00,
2013-02-21 01:21:00,18.4,14.0,29.74,ESE,110,0.0,-999.0,82,-99.99,,,0.04,weatherlink.com 1.10,2013-02-21 08:21:00,
2013-02-21 01:36:00,18.1,14.0,29.74,ESE,103,0.0,-999.0,82,-99.99,,,0.04,weatherlink.com 1.10,2013-02-21 08:36:00,
2013-02-21 01:51:00,18.0,13.0,29.74,ESE,110,0.0,-999.0,82,-99.99,,,0.04,weatherlink.com 1.10,2013-02-21 08:51:00,
2013-02-21 02:06:00,17.7,13.0,29.74,ESE,110,0.0,-999.0,81,-99.99,,,0.04,weatherlink.com 1.10,2013-02-21 09:06:00,
2013-02-21 02:21:00,17.5,13.0,29.74,ESE,110,0.0,-999.0,81,-99.99,,,0.05,weatherlink.com 1.10,2013-02-21 09:21:00,
2013-02-21 02:36:00,17.2,12.0,29.73,ESE,110,0.0,-999.0,81,-99.99,,,0.05,weatherlink.com 1.10,2013-02-21 09:36:00,
2013-02-21 02:51:00,16.5,12.0,29.73,ESE,110,0.0,-999.0,81,-99.99,,,0.06,weatherlink.com 1.10,2013-02-21 09:51:00,
2013-02-21 03:06:00,16.2,11.0,29.77,ESE,110,0.0,-999.0,81,-99.99,,,0.06,weatherlink.com 1.10,2013-02-21 10:06:00,
2013-02-21 03:21:00,15.9,11.0,29.77,ESE,110,0.0,-999.0,81,-99.99,,,0.06,weatherlink.com 1.10,2013-02-21 10:21:00,
2013-02-21 03:36:00,15.7,11.0,29.76,ESE,110,0.0,-999.0,81,-99.99,,,0.06,weatherlink.com 1.10,2013-02-21 10:36:00,
2013-02-21 03:51:00,15.4,11.0,29.76,ESE,110,0.0,-999.0,81,-99.99,,,0.06,weatherlink.com 1.10,2013-02-21 10:51:00,
2013-02-21 04:06:00,15.4,11.0,29.80,ESE,110,0.0,-999.0,81,-99.99,,,0.06,weatherlink.com 1.10,2013-02-21 11:06:00,
2013-02-21 04:21:00,15.4,11.0,29.81,ESE,110,0.0,-999.0,81,-99.99,,,0.06,weatherlink.com 1.10,2013-02-21 11:21:00,
2013-02-21 04:36:00,15.4,11.0,29.82,ESE,110,0.0,-999.0,81,-99.99,,,0.06,weatherlink.com 1.10,2013-02-21 11:36:00,
2013-02-21 04:51:00,15.2,10.0,29.83,ESE,110,0.0,-999.0,81,-99.99,,,0.00,weatherlink.com 1.10,2013-02-21 11:51:00,
2013-02-21 05:06:00,14.9,10.0,29.85,ESE,110,0.0,-999.0,81,-99.99,,,0.00,weatherlink.com 1.10,2013-02-21 12:06:00,
2013-02-21 05:21:00,14.8,10.0,29.85,ESE,110,0.0,-999.0,81,-99.99,,,0.00,weatherlink.com 1.10,2013-02-21 12:21:00,
2013-02-21 05:36:00,14.6,10.0,29.86,ESE,112,0.0,-999.0,81,-99.99,,,0.00,weatherlink.com 1.10,2013-02-21 12:36:00,
2013-02-21 05:51:00,14.4,10.0,29.86,ESE,112,0.0,-999.0,81,-99.99,,,0.01,weatherlink.com 1.10,2013-02-21 12:51:00,
2013-02-21 06:06:00,14.4,10.0,29.86,ESE,112,0.0,-999.0,81,-99.99,,,0.01,weatherlink.com 1.10,2013-02-21 13:06:00,
2013-02-21 06:21:00,14.4,10.0,29.87,ESE,112,0.0,-999.0,82,-99.99,,,0.01,weatherlink.com 1.10,2013-02-21 13:21:00,
2013-02-21 06:36:00,14.4,10.0,29.87,ESE,112,0.0,-999.0,82,-99.99,,,0.01,weatherlink.com 1.10,2013-02-21 13:36:00,
2013-02-21 06:51:00,14.4,10.0,29.88,ESE,112,0.0,-999.0,82,-99.99,,,0.01,weatherlink.com 1.10,2013-02-21 13:51:00,
2013-02-21 07:06:00,14.4,10.0,29.89,ESE,112,0.0,-999.0,82,-99.99,,,0.02,weatherlink.com 1.10,2013-02-21 14:06:00,
2013-02-21 07:21:00,14.4,10.0,29.90,ESE,112,0.0,-999.0,82,-99.99,,,0.02,weatherlink.com 1.10,2013-02-21 14:21:00,
2013-02-21 07:36:00,14.8,10.0,29.90,ESE,112,0.0,-999.0,82,-99.99,,,0.02,weatherlink.com 1.10,2013-02-21 14:36:00,
2013-02-21 07:52:00,15.1,11.0,29.91,ESE,112,0.0,-999.0,82,-99.99,,,0.02,weatherlink.com 1.10,2013-02-21 14:52:00,
2013-02-21 08:06:00,15.4,11.0,29.91,ESE,112,0.0,-999.0,82,-99.99,,,0.02,weatherlink.com 1.10,2013-02-21 15:06:00,
2013-02-21 08:21:00,15.6,11.0,29.91,ESE,112,0.0,-999.0,82,-99.99,,,0.02,weatherlink.com 1.10,2013-02-21 15:21:00,
2013-02-21 08:36:00,16.4,12.0,29.91,ESE,112,0.0,-999.0,82,-99.99,,,0.02,weatherlink.com 1.10,2013-02-21 15:36:00,
2013-02-21 08:52:00,17.7,13.0,29.90,ESE,112,0.0,-999.0,83,-99.99,,,0.03,weatherlink.com 1.10,2013-02-21 15:52:00,
2013-02-21 09:07:00,19.9,15.0,29.91,ESE,110,0.0,-999.0,82,-99.99,,,0.03,weatherlink.com 1.10,2013-02-21 16:07:00,
2013-02-21 09:22:00,21.1,16.0,29.90,ESE,110,0.0,-999.0,80,-99.99,,,0.03,weatherlink.com 1.10,2013-02-21 16:22:00,
2013-02-21 09:37:00,22.2,16.0,29.89,ESE,112,0.0,-999.0,77,-99.99,,,0.03,weatherlink.com 1.10,2013-02-21 16:37:00,
2013-02-21 09:52:00,23.5,17.0,29.89,ESE,112,0.0,-999.0,75,-99.99,,,0.03,weatherlink.com 1.10,2013-02-21 16:52:00,
2013-02-21 10:07:00,24.4,17.0,29.89,ESE,112,0.0,-999.0,72,-99.99,,,0.03,weatherlink.com 1.10,2013-02-21 17:07:00,
2013-02-21 10:22:00,23.9,15.0,29.90,ESE,112,0.0,-999.0,70,-99.99,,,0.03,weatherlink.com 1.10,2013-02-21 17:22:00,
2013-02-21 10:37:00,23.5,15.0,29.90,ESE,112,0.0,-999.0,71,-99.99,,,0.03,weatherlink.com 1.10,2013-02-21 17:37:00,
2013-02-21 10:52:00,24.1,16.0,29.90,ESE,112,0.0,-999.0,71,-99.99,,,0.03,weatherlink.com 1.10,2013-02-21 17:52:00,
2013-02-21 11:07:00,24.8,17.0,29.88,ESE,112,0.0,-999.0,71,-99.99,,,0.03,weatherlink.com 1.10,2013-02-21 18:07:00,
2013-02-21 11:22:00,24.8,17.0,29.88,ESE,113,0.0,-999.0,71,-99.99,,,0.03,weatherlink.com 1.10,2013-02-21 18:22:00,
2013-02-21 11:38:00,25.4,18.0,29.87,ESE,113,0.0,-999.0,72,-99.99,,,0.03,weatherlink.com 1.10,2013-02-21 18:38:00,
2013-02-21 11:52:00,25.8,18.0,29.87,ESE,112,0.0,-999.0,73,-99.99,,,0.03,weatherlink.com 1.10,2013-02-21 18:52:00,
2013-02-21 12:07:00,26.4,20.0,29.86,North,359,2.0,-999.0,75,-99.99,,,0.03,weatherlink.com 1.10,2013-02-21 19:07:00,
2013-02-21 12:22:00,30.3,22.0,29.82,North,350,0.0,-999.0,70,-99.99,,,0.03,weatherlink.com 1.10,2013-02-21 19:22:00,
2013-02-21 12:37:00,30.6,21.0,29.80,North,359,2.0,-999.0,67,-99.99,,,0.03,weatherlink.com 1.10,2013-02-21 19:37:00,
2013-02-21 12:52:00,30.1,20.0,29.81,NNE,20,0.0,-999.0,65,-99.99,,,0.03,weatherlink.com 1.10,2013-02-21 19:52:00,
2013-02-21 13:07:00,30.3,20.0,29.80,North,0,0.0,-999.0,66,-99.99,,,0.03,weatherlink.com 1.10,2013-02-21 20:07:00,
2013-02-21 13:22:00,30.7,20.0,29.79,North,6,1.0,-999.0,65,-99.99,,,0.03,weatherlink.com 1.10,2013-02-21 20:22:00,
2013-02-21 13:37:00,31.0,20.0,29.79,North,8,6.0,-999.0,64,-99.99,,,0.03,weatherlink.com 1.10,2013-02-21 20:37:00,
2013-02-21 13:52:00,30.7,20.0,29.78,North,359,5.0,-999.0,64,-99.99,,,0.03,weatherlink.com 1.10,2013-02-21 20:52:00,
2013-02-21 14:07:00,30.3,20.0,29.79,North,354,5.0,-999.0,65,-99.99,,,0.03,weatherlink.com 1.10,2013-02-21 21:07:00,
2013-02-21 14:22:00,30.4,20.0,29.78,North,359,6.0,-999.0,65,-99.99,,,0.03,weatherlink.com 1.10,2013-02-21 21:22:00,
2013-02-21 14:37:00,30.4,20.0,29.79,North,7,3.0,-999.0,66,-99.99,,,0.03,weatherlink.com 1.10,2013-02-21 21:37:00,
2013-02-21 14:52:00,30.3,20.0,29.79,NNE,20,3.0,-999.0,66,-99.99,,,0.03,weatherlink.com 1.10,2013-02-21 21:52:00,
2013-02-21 15:07:00,30.9,21.0,29.79,North,359,6.0,-999.0,66,-99.99,,,0.03,weatherlink.com 1.10,2013-02-21 22:07:00,
2013-02-21 15:22:00,30.9,20.0,29.80,North,359,5.0,-999.0,65,-99.99,,,0.03,weatherlink.com 1.10,2013-02-21 22:22:00,
2013-02-21 15:37:00,30.6,20.0,29.80,North,7,1.0,-999.0,65,-99.99,,,0.03,weatherlink.com 1.10,2013-02-21 22:37:00,
2013-02-21 15:52:00,29.8,19.0,29.80,North,0,5.0,-999.0,65,-99.99,,,0.03,weatherlink.com 1.10,2013-02-21 22:52:00,
2013-02-21 16:07:00,29.3,19.0,29.82,North,359,1.0,-999.0,65,-99.99,,,0.03,weatherlink.com 1.10,2013-02-21 23:07:00,
2013-02-21 16:24:00,28.5,18.0,29.84,North,10,0.0,-999.0,66,-99.99,,,0.03,weatherlink.com 1.10,2013-02-21 23:24:00,
2013-02-21 16:37:00,28.1,18.0,29.85,North,359,0.0,-999.0,67,-99.99,,,0.03,weatherlink.com 1.10,2013-02-21 23:37:00,
2013-02-21 16:52:00,27.6,18.0,29.86,North,1,0.0,-999.0,67,-99.99,,,0.03,weatherlink.com 1.10,2013-02-21 23:52:00,
2013-02-21 17:07:00,27.3,18.0,29.87,North,0,0.0,-999.0,67,-99.99,,,0.03,weatherlink.com 1.10,2013-02-22 00:07:00,
2013-02-21 17:22:00,27.0,18.0,29.90,North,359,0.0,-999.0,68,-99.99,,,0.03,weatherlink.com 1.10,2013-02-22 00:22:00,
2013-02-21 17:37:00,27.0,19.0,29.91,South,186,0.0,-999.0,73,-99.99,,,0.03,weatherlink.com 1.10,2013-02-22 00:37:00,
2013-02-21 17:52:00,26.6,20.0,29.91,South,184,0.0,-999.0,77,-99.99,,,0.03,weatherlink.com 1.10,2013-02-22 00:52:00,
2013-02-21 18:07:00,26.3,21.0,29.92,SSW,193,3.0,-999.0,80,-99.99,,,0.03,weatherlink.com 1.10,2013-02-22 01:07:00,
2013-02-21 18:22:00,26.1,21.0,29.92,South,186,0.0,-999.0,82,-99.99,,,0.03,weatherlink.com 1.10,2013-02-22 01:22:00,
2013-02-21 18:37:00,25.8,21.0,29.93,SSE,164,0.0,-999.0,83,-99.99,,,0.03,weatherlink.com 1.10,2013-02-22 01:37:00,
2013-02-21 18:52:00,25.3,21.0,29.95,South,176,0.0,-999.0,84,-99.99,,,0.03,weatherlink.com 1.10,2013-02-22 01:52:00,
2013-02-21 19:07:00,24.2,20.0,29.94,SSE,150,1.0,-999.0,85,-99.99,,,0.03,weatherlink.com 1.10,2013-02-22 02:07:00,
2013-02-21 19:22:00,23.2,20.0,29.96,SSE,160,0.0,-999.0,86,-99.99,,,0.03,weatherlink.com 1.10,2013-02-22 02:22:00,
2013-02-21 19:37:00,22.7,19.0,29.96,SSE,164,0.0,-999.0,86,-99.99,,,0.03,weatherlink.com 1.10,2013-02-22 02:37:00,
2013-02-21 19:52:00,22.4,19.0,29.97,SSE,165,0.0,-999.0,86,-99.99,,,0.03,weatherlink.com 1.10,2013-02-22 02:52:00,
2013-02-21 20:09:00,22.2,19.0,29.97,SSE,164,0.0,-999.0,87,-99.99,,,0.03,weatherlink.com 1.10,2013-02-22 03:09:00,
2013-02-21 20:22:00,22.2,19.0,29.97,SSE,167,0.0,-999.0,87,-99.99,,,0.03,weatherlink.com 1.10,2013-02-22 03:22:00,
2013-02-21 20:37:00,22.2,19.0,29.97,SSE,167,0.0,-999.0,87,-99.99,,,0.03,weatherlink.com 1.10,2013-02-22 03:37:00,
2013-02-21 20:53:00,21.8,19.0,29.97,SSE,167,0.0,-999.0,87,-99.99,,,0.03,weatherlink.com 1.10,2013-02-22 03:53:00,
2013-02-21 21:08:00,21.0,18.0,29.94,SSE,167,0.0,-999.0,86,-99.99,,,0.03,weatherlink.com 1.10,2013-02-22 04:08:00,
2013-02-21 21:38:00,20.3,17.0,29.94,SSE,167,0.0,-999.0,87,-99.99,,,0.03,weatherlink.com 1.10,2013-02-22 04:38:00,
2013-02-21 21:53:00,20.0,17.0,29.95,SSE,167,0.0,-999.0,86,-99.99,,,0.03,weatherlink.com 1.10,2013-02-22 04:53:00,
2013-02-21 22:08:00,19.5,16.0,29.93,SSE,167,0.0,-999.0,86,-99.99,,,0.03,weatherlink.com 1.10,2013-02-22 05:08:00,
2013-02-21 22:23:00,18.8,15.0,29.94,SSE,167,0.0,-999.0,86,-99.99,,,0.03,weatherlink.com 1.10,2013-02-22 05:23:00,
2013-02-21 22:38:00,18.6,15.0,29.94,SSE,167,0.0,-999.0,86,-99.99,,,0.03,weatherlink.com 1.10,2013-02-22 05:38:00,
2013-02-21 22:53:00,18.6,15.0,29.94,SSE,167,0.0,-999.0,86,-99.99,,,0.03,weatherlink.com 1.10,2013-02-22 05:53:00,
2013-02-21 23:08:00,18.1,15.0,29.93,SSE,167,0.0,-999.0,86,-99.99,,,0.03,weatherlink.com 1.10,2013-02-22 06:08:00,
2013-02-21 23:23:00,17.8,14.0,29.93,SSE,167,0.0,-999.0,86,-99.99,,,0.03,weatherlink.com 1.10,2013-02-22 06:23:00,
2013-02-21 23:38:00,17.5,14.0,29.93,SSE,167,0.0,-999.0,86,-99.99,,,0.03,weatherlink.com 1.10,2013-02-22 06:38:00,
2013-02-21 23:53:00,17.2,14.0,29.94,SSE,167,0.0,-999.0,86,-99.99,,,0.03,weatherlink.com 1.10,2013-02-22 06:53:00,